sensor_id;sensor_type;location;lat;lon;timestamp;pressure;altitude;pressure_sealevel;temperature;humidity
4024;BME280;2026;51.002;13.668;2022-07-22T00:04:27;99322.91;;;19.64;59.52
4024;BME280;2026;51.002;13.668;2022-07-22T00:09:30;99321.72;;;19.81;59.09
4024;BME280;2026;51.002;13.668;2022-07-22T00:14:35;99334.47;;;19.89;58.67
4024;BME280;2026;51.002;13.668;2022-07-22T00:19:38;99334.09;;;19.66;59.87
4024;BME280;2026;51.002;13.668;2022-07-22T00:24:41;99329.13;;;19.49;60.07
4024;BME280;2026;51.002;13.668;2022-07-22T00:29:45;99328.44;;;19.33;61.36
4024;BME280;2026;51.002;13.668;2022-07-22T00:34:48;99333.91;;;19.07;62.22
4024;BME280;2026;51.002;13.668;2022-07-22T00:39:51;99339.41;;;19.26;61.14
4024;BME280;2026;51.002;13.668;2022-07-22T00:44:56;99332.81;;;19.19;61.60
4024;BME280;2026;51.002;13.668;2022-07-22T00:50:02;99346.16;;;19.13;61.70
4024;BME280;2026;51.002;13.668;2022-07-22T00:55:06;99347.75;;;19.14;60.50
4024;BME280;2026;51.002;13.668;2022-07-22T01:00:14;99337.31;;;19.18;59.27
4024;BME280;2026;51.002;13.668;2022-07-22T01:05:18;99345.88;;;19.15;58.70
4024;BME280;2026;51.002;13.668;2022-07-22T01:10:21;99345.81;;;19.25;57.82
4024;BME280;2026;51.002;13.668;2022-07-22T01:15:26;99337.00;;;19.30;57.76
4024;BME280;2026;51.002;13.668;2022-07-22T01:20:31;99341.34;;;19.16;58.26
4024;BME280;2026;51.002;13.668;2022-07-22T01:25:34;99338.03;;;19.34;57.41
4024;BME280;2026;51.002;13.668;2022-07-22T01:30:37;99333.72;;;19.44;57.13
4024;BME280;2026;51.002;13.668;2022-07-22T01:35:42;99340.09;;;19.48;56.64
4024;BME280;2026;51.002;13.668;2022-07-22T01:40:45;99337.13;;;19.54;56.41
4024;BME280;2026;51.002;13.668;2022-07-22T01:45:50;99345.47;;;19.37;57.14
4024;BME280;2026;51.002;13.668;2022-07-22T01:50:56;99344.16;;;19.35;57.51
4024;BME280;2026;51.002;13.668;2022-07-22T01:55:59;99340.19;;;19.32;57.47
4024;BME280;2026;51.002;13.668;2022-07-22T02:01:05;99340.22;;;19.27;57.69
4024;BME280;2026;51.002;13.668;2022-07-22T02:06:10;99348.44;;;19.36;57.74
4024;BME280;2026;51.002;13.668;2022-07-22T02:11:14;99341.19;;;19.41;57.48
4024;BME280;2026;51.002;13.668;2022-07-22T02:16:25;99346.91;;;19.19;57.96
4024;BME280;2026;51.002;13.668;2022-07-22T02:21:30;99340.56;;;19.15;58.48
4024;BME280;2026;51.002;13.668;2022-07-22T02:26:34;99337.13;;;19.09;58.95
4024;BME280;2026;51.002;13.668;2022-07-22T02:31:38;99333.38;;;19.10;59.73
4024;BME280;2026;51.002;13.668;2022-07-22T02:36:43;99349.81;;;19.23;59.14
4024;BME280;2026;51.002;13.668;2022-07-22T02:41:48;99345.69;;;18.96;60.08
4024;BME280;2026;51.002;13.668;2022-07-22T02:46:51;99357.69;;;18.93;59.99
4024;BME280;2026;51.002;13.668;2022-07-22T02:52:03;99360.09;;;18.95;59.89
4024;BME280;2026;51.002;13.668;2022-07-22T02:57:07;99367.03;;;18.96;59.69
4024;BME280;2026;51.002;13.668;2022-07-22T03:02:11;99359.00;;;18.91;59.85
4024;BME280;2026;51.002;13.668;2022-07-22T03:07:15;99374.28;;;18.64;60.35
4024;BME280;2026;51.002;13.668;2022-07-22T03:12:18;99376.72;;;18.45;61.03
4024;BME280;2026;51.002;13.668;2022-07-22T03:17:22;99383.13;;;18.44;61.66
4024;BME280;2026;51.002;13.668;2022-07-22T03:22:26;99381.00;;;18.36;61.74
4024;BME280;2026;51.002;13.668;2022-07-22T03:27:29;99380.50;;;18.02;62.80
4024;BME280;2026;51.002;13.668;2022-07-22T03:32:34;99380.47;;;18.28;61.95
4024;BME280;2026;51.002;13.668;2022-07-22T03:37:38;99383.16;;;18.34;61.93
4024;BME280;2026;51.002;13.668;2022-07-22T03:42:42;99382.34;;;18.33;61.80
4024;BME280;2026;51.002;13.668;2022-07-22T03:47:48;99383.13;;;18.44;61.65
4024;BME280;2026;51.002;13.668;2022-07-22T03:52:55;99375.38;;;18.58;61.38
4024;BME280;2026;51.002;13.668;2022-07-22T03:57:58;99382.56;;;18.52;61.63
4024;BME280;2026;51.002;13.668;2022-07-22T04:03:04;99383.13;;;18.54;61.62
4024;BME280;2026;51.002;13.668;2022-07-22T04:08:28;99378.31;;;18.51;61.76
4024;BME280;2026;51.002;13.668;2022-07-22T04:13:31;99385.56;;;19.22;60.00
4024;BME280;2026;51.002;13.668;2022-07-22T04:18:34;99384.44;;;19.84;58.20
4024;BME280;2026;51.002;13.668;2022-07-22T04:23:39;99384.19;;;20.15;57.17
4024;BME280;2026;51.002;13.668;2022-07-22T04:28:50;99373.25;;;20.41;56.51
4024;BME280;2026;51.002;13.668;2022-07-22T04:33:55;99385.34;;;21.11;55.02
4024;BME280;2026;51.002;13.668;2022-07-22T04:38:59;99378.19;;;21.83;53.18
4024;BME280;2026;51.002;13.668;2022-07-22T04:44:03;99382.44;;;23.07;50.28
4024;BME280;2026;51.002;13.668;2022-07-22T04:49:07;99375.78;;;23.18;49.85
4024;BME280;2026;51.002;13.668;2022-07-22T04:54:12;99375.44;;;23.34;49.45
4024;BME280;2026;51.002;13.668;2022-07-22T04:59:18;99388.47;;;24.09;47.99
4024;BME280;2026;51.002;13.668;2022-07-22T05:04:21;99384.75;;;24.19;47.95
4024;BME280;2026;51.002;13.668;2022-07-22T05:09:27;99375.06;;;24.50;47.25
4024;BME280;2026;51.002;13.668;2022-07-22T05:14:32;99387.34;;;24.01;48.14
4024;BME280;2026;51.002;13.668;2022-07-22T05:19:37;99387.19;;;24.70;46.53
4024;BME280;2026;51.002;13.668;2022-07-22T05:24:43;99397.00;;;25.41;45.22
4024;BME280;2026;51.002;13.668;2022-07-22T05:29:47;99387.31;;;25.67;44.13
4024;BME280;2026;51.002;13.668;2022-07-22T05:34:50;99393.66;;;25.71;44.66
4024;BME280;2026;51.002;13.668;2022-07-22T05:39:55;99393.03;;;25.30;45.53
4024;BME280;2026;51.002;13.668;2022-07-22T05:44:58;99383.66;;;26.07;44.18
4024;BME280;2026;51.002;13.668;2022-07-22T05:50:01;99386.38;;;25.45;44.25
4024;BME280;2026;51.002;13.668;2022-07-22T05:55:08;99381.09;;;25.05;46.11
4024;BME280;2026;51.002;13.668;2022-07-22T06:00:12;99380.47;;;25.17;44.81
4024;BME280;2026;51.002;13.668;2022-07-22T06:05:17;99378.88;;;26.04;43.68
4024;BME280;2026;51.002;13.668;2022-07-22T06:10:39;99379.94;;;26.29;42.94
4024;BME280;2026;51.002;13.668;2022-07-22T06:15:43;99373.31;;;26.65;42.63
4024;BME280;2026;51.002;13.668;2022-07-22T06:20:46;99373.03;;;26.58;42.37
4024;BME280;2026;51.002;13.668;2022-07-22T06:25:51;99384.16;;;25.65;43.74
4024;BME280;2026;51.002;13.668;2022-07-22T06:31:00;99384.31;;;25.77;44.09
4024;BME280;2026;51.002;13.668;2022-07-22T06:36:03;99390.63;;;26.56;42.00
4024;BME280;2026;51.002;13.668;2022-07-22T06:41:08;99387.91;;;26.17;42.88
4024;BME280;2026;51.002;13.668;2022-07-22T06:46:25;99391.38;;;26.95;42.08
4024;BME280;2026;51.002;13.668;2022-07-22T06:51:30;99387.63;;;26.48;42.75
4024;BME280;2026;51.002;13.668;2022-07-22T06:56:35;99385.00;;;27.00;42.17
4024;BME280;2026;51.002;13.668;2022-07-22T07:01:39;99383.19;;;27.55;41.10
4024;BME280;2026;51.002;13.668;2022-07-22T07:06:42;99379.91;;;27.83;40.26
4024;BME280;2026;51.002;13.668;2022-07-22T07:12:02;99382.25;;;27.72;40.19
4024;BME280;2026;51.002;13.668;2022-07-22T07:17:37;99372.31;;;27.98;39.53
4024;BME280;2026;51.002;13.668;2022-07-22T07:22:44;99383.72;;;28.16;39.17
4024;BME280;2026;51.002;13.668;2022-07-22T07:27:49;99376.25;;;25.77;43.28
4024;BME280;2026;51.002;13.668;2022-07-22T07:32:59;99371.66;;;26.73;43.60
4024;BME280;2026;51.002;13.668;2022-07-22T07:38:03;99370.00;;;27.54;40.79
4024;BME280;2026;51.002;13.668;2022-07-22T07:43:09;99364.91;;;28.07;39.48
4024;BME280;2026;51.002;13.668;2022-07-22T07:48:12;99353.69;;;28.55;37.89
4024;BME280;2026;51.002;13.668;2022-07-22T07:53:16;99366.50;;;26.12;43.13
4024;BME280;2026;51.002;13.668;2022-07-22T07:58:22;99354.81;;;27.06;42.33
4024;BME280;2026;51.002;13.668;2022-07-22T08:03:25;99354.19;;;27.01;42.23
4024;BME280;2026;51.002;13.668;2022-07-22T08:08:29;99361.44;;;28.19;39.69
4024;BME280;2026;51.002;13.668;2022-07-22T08:13:40;99371.22;;;26.23;42.70
4024;BME280;2026;51.002;13.668;2022-07-22T08:19:02;99357.28;;;26.21;42.73
4024;BME280;2026;51.002;13.668;2022-07-22T08:24:06;99354.97;;;26.41;42.87
4024;BME280;2026;51.002;13.668;2022-07-22T08:29:12;99368.75;;;26.01;43.26
4024;BME280;2026;51.002;13.668;2022-07-22T08:34:15;99353.31;;;25.27;44.17
4024;BME280;2026;51.002;13.668;2022-07-22T08:39:18;99353.28;;;25.62;44.58
4024;BME280;2026;51.002;13.668;2022-07-22T08:44:29;99355.19;;;25.26;44.64
4024;BME280;2026;51.002;13.668;2022-07-22T08:49:32;99352.16;;;25.10;45.28
4024;BME280;2026;51.002;13.668;2022-07-22T08:54:35;99350.13;;;26.95;42.14
4024;BME280;2026;51.002;13.668;2022-07-22T08:59:52;99355.91;;;27.05;39.68
4024;BME280;2026;51.002;13.668;2022-07-22T09:04:58;99351.13;;;27.87;38.93
4024;BME280;2026;51.002;13.668;2022-07-22T09:10:22;99344.63;;;28.76;36.96
4024;BME280;2026;51.002;13.668;2022-07-22T09:15:46;99348.47;;;28.87;36.75
4024;BME280;2026;51.002;13.668;2022-07-22T09:21:14;99354.13;;;28.32;36.61
4024;BME280;2026;51.002;13.668;2022-07-22T09:26:33;99346.19;;;28.02;38.28
4024;BME280;2026;51.002;13.668;2022-07-22T09:32:10;99346.16;;;29.14;37.17
4024;BME280;2026;51.002;13.668;2022-07-22T09:37:27;99346.44;;;26.99;39.57
4024;BME280;2026;51.002;13.668;2022-07-22T09:42:43;99345.44;;;29.30;36.60
4024;BME280;2026;51.002;13.668;2022-07-22T09:47:50;99340.53;;;27.27;37.58
4024;BME280;2026;51.002;13.668;2022-07-22T09:53:26;99341.09;;;27.12;38.61
4024;BME280;2026;51.002;13.668;2022-07-22T09:58:41;99336.00;;;26.68;39.46
4024;BME280;2026;51.002;13.668;2022-07-22T10:04:03;99330.09;;;27.17;37.90
4024;BME280;2026;51.002;13.668;2022-07-22T10:09:09;99341.38;;;26.68;39.86
4024;BME280;2026;51.002;13.668;2022-07-22T10:14:17;99336.03;;;25.28;42.50
4024;BME280;2026;51.002;13.668;2022-07-22T10:19:27;99324.81;;;26.09;41.05
4024;BME280;2026;51.002;13.668;2022-07-22T10:24:31;99328.25;;;27.85;39.23
4024;BME280;2026;51.002;13.668;2022-07-22T10:29:39;99326.44;;;27.00;37.89
4024;BME280;2026;51.002;13.668;2022-07-22T10:35:22;99323.78;;;27.68;37.38
4024;BME280;2026;51.002;13.668;2022-07-22T10:40:28;99330.31;;;28.13;35.68
4024;BME280;2026;51.002;13.668;2022-07-22T10:45:33;99320.09;;;28.56;35.62
4024;BME280;2026;51.002;13.668;2022-07-22T10:51:07;99322.59;;;28.49;34.37
4024;BME280;2026;51.002;13.668;2022-07-22T10:56:28;99325.50;;;28.56;36.00
4024;BME280;2026;51.002;13.668;2022-07-22T11:01:34;99328.78;;;29.15;34.33
4024;BME280;2026;51.002;13.668;2022-07-22T11:06:44;99326.16;;;28.28;34.22
4024;BME280;2026;51.002;13.668;2022-07-22T11:11:49;99332.56;;;26.58;38.49
4024;BME280;2026;51.002;13.668;2022-07-22T11:16:54;99324.13;;;26.30;38.73
4024;BME280;2026;51.002;13.668;2022-07-22T11:22:01;99312.19;;;27.12;38.24
4024;BME280;2026;51.002;13.668;2022-07-22T11:27:09;99314.94;;;26.22;38.97
4024;BME280;2026;51.002;13.668;2022-07-22T11:32:16;99304.53;;;26.42;39.89
4024;BME280;2026;51.002;13.668;2022-07-22T11:37:22;99293.78;;;26.33;39.66
4024;BME280;2026;51.002;13.668;2022-07-22T11:42:26;99292.09;;;27.43;38.03
4024;BME280;2026;51.002;13.668;2022-07-22T11:47:29;99284.97;;;26.84;39.07
4024;BME280;2026;51.002;13.668;2022-07-22T11:52:33;99290.66;;;27.46;37.11
4024;BME280;2026;51.002;13.668;2022-07-22T11:57:46;99279.41;;;27.01;37.81
4024;BME280;2026;51.002;13.668;2022-07-22T12:02:50;99272.69;;;26.05;39.46
4024;BME280;2026;51.002;13.668;2022-07-22T12:07:55;99258.72;;;27.60;37.43
4024;BME280;2026;51.002;13.668;2022-07-22T12:12:58;99268.00;;;27.97;36.32
4024;BME280;2026;51.002;13.668;2022-07-22T12:18:15;99255.81;;;29.06;35.53
4024;BME280;2026;51.002;13.668;2022-07-22T12:23:20;99268.41;;;27.74;35.51
4024;BME280;2026;51.002;13.668;2022-07-22T12:28:24;99257.03;;;27.01;37.34
4024;BME280;2026;51.002;13.668;2022-07-22T12:33:27;99250.56;;;28.07;35.76
4024;BME280;2026;51.002;13.668;2022-07-22T12:38:32;99254.78;;;29.11;35.17
4024;BME280;2026;51.002;13.668;2022-07-22T12:43:38;99258.28;;;26.61;37.54
4024;BME280;2026;51.002;13.668;2022-07-22T12:48:48;99243.19;;;28.45;35.52
4024;BME280;2026;51.002;13.668;2022-07-22T12:53:54;99241.72;;;27.60;36.20
4024;BME280;2026;51.002;13.668;2022-07-22T12:58:58;99230.75;;;27.31;36.38
4024;BME280;2026;51.002;13.668;2022-07-22T13:04:01;99223.84;;;27.22;37.01
4024;BME280;2026;51.002;13.668;2022-07-22T13:09:06;99233.06;;;27.21;37.32
4024;BME280;2026;51.002;13.668;2022-07-22T13:14:19;99224.28;;;27.70;36.47
4024;BME280;2026;51.002;13.668;2022-07-22T13:19:22;99223.66;;;28.64;34.67
4024;BME280;2026;51.002;13.668;2022-07-22T13:24:26;99225.41;;;27.69;35.76
4024;BME280;2026;51.002;13.668;2022-07-22T13:29:29;99216.19;;;28.20;34.89
4024;BME280;2026;51.002;13.668;2022-07-22T13:34:32;99222.19;;;27.42;35.96
4024;BME280;2026;51.002;13.668;2022-07-22T13:39:37;99217.22;;;28.02;35.49
4024;BME280;2026;51.002;13.668;2022-07-22T13:44:40;99211.06;;;27.43;36.27
4024;BME280;2026;51.002;13.668;2022-07-22T13:49:43;99209.00;;;28.65;34.46
4024;BME280;2026;51.002;13.668;2022-07-22T13:54:53;99210.81;;;29.62;32.94
4024;BME280;2026;51.002;13.668;2022-07-22T13:59:57;99200.88;;;27.99;34.70
4024;BME280;2026;51.002;13.668;2022-07-22T14:05:00;99201.94;;;27.36;35.94
4024;BME280;2026;51.002;13.668;2022-07-22T14:10:05;99197.72;;;27.97;34.85
4024;BME280;2026;51.002;13.668;2022-07-22T14:15:10;99202.59;;;28.04;34.39
4024;BME280;2026;51.002;13.668;2022-07-22T14:20:14;99196.81;;;27.80;35.20
4024;BME280;2026;51.002;13.668;2022-07-22T14:25:18;99196.66;;;27.39;35.44
4024;BME280;2026;51.002;13.668;2022-07-22T14:30:22;99190.28;;;28.06;34.76
4024;BME280;2026;51.002;13.668;2022-07-22T14:35:26;99197.94;;;28.17;34.67
4024;BME280;2026;51.002;13.668;2022-07-22T14:40:31;99195.09;;;28.50;33.87
4024;BME280;2026;51.002;13.668;2022-07-22T14:45:34;99178.88;;;28.50;33.80
4024;BME280;2026;51.002;13.668;2022-07-22T14:50:38;99187.25;;;27.95;34.23
4024;BME280;2026;51.002;13.668;2022-07-22T14:55:42;99180.41;;;27.85;34.17
4024;BME280;2026;51.002;13.668;2022-07-22T15:00:45;99177.84;;;28.30;34.20
4024;BME280;2026;51.002;13.668;2022-07-22T15:05:48;99174.84;;;27.82;34.18
4024;BME280;2026;51.002;13.668;2022-07-22T15:10:53;99172.72;;;28.12;34.13
4024;BME280;2026;51.002;13.668;2022-07-22T15:15:56;99172.50;;;28.05;33.89
4024;BME280;2026;51.002;13.668;2022-07-22T15:20:59;99157.97;;;28.63;33.50
4024;BME280;2026;51.002;13.668;2022-07-22T15:26:04;99156.28;;;27.80;34.21
4024;BME280;2026;51.002;13.668;2022-07-22T15:31:07;99152.88;;;27.83;34.01
4024;BME280;2026;51.002;13.668;2022-07-22T15:36:10;99153.50;;;28.42;33.28
4024;BME280;2026;51.002;13.668;2022-07-22T15:41:14;99151.44;;;27.73;34.93
4024;BME280;2026;51.002;13.668;2022-07-22T15:46:18;99150.88;;;27.55;34.57
4024;BME280;2026;51.002;13.668;2022-07-22T15:51:21;99145.59;;;28.50;33.13
4024;BME280;2026;51.002;13.668;2022-07-22T15:56:25;99151.97;;;27.29;35.25
4024;BME280;2026;51.002;13.668;2022-07-22T16:01:28;99145.47;;;27.80;34.63
4024;BME280;2026;51.002;13.668;2022-07-22T16:06:32;99129.13;;;28.55;33.25
4024;BME280;2026;51.002;13.668;2022-07-22T16:11:37;99129.00;;;28.23;33.97
4024;BME280;2026;51.002;13.668;2022-07-22T16:16:40;99124.63;;;27.68;34.06
4024;BME280;2026;51.002;13.668;2022-07-22T16:21:45;99119.00;;;27.61;34.27
4024;BME280;2026;51.002;13.668;2022-07-22T16:26:49;99111.13;;;27.56;34.17
4024;BME280;2026;51.002;13.668;2022-07-22T16:31:52;99120.50;;;27.46;34.45
4024;BME280;2026;51.002;13.668;2022-07-22T16:36:55;99116.53;;;27.31;35.08
4024;BME280;2026;51.002;13.668;2022-07-22T16:42:00;99115.72;;;27.68;34.21
4024;BME280;2026;51.002;13.668;2022-07-22T16:47:03;99121.28;;;27.34;35.21
4024;BME280;2026;51.002;13.668;2022-07-22T16:52:09;99118.69;;;27.50;34.39
4024;BME280;2026;51.002;13.668;2022-07-22T16:57:14;99126.25;;;27.11;34.69
4024;BME280;2026;51.002;13.668;2022-07-22T17:02:17;99119.59;;;27.29;34.78
4024;BME280;2026;51.002;13.668;2022-07-22T17:07:20;99124.91;;;27.17;34.55
4024;BME280;2026;51.002;13.668;2022-07-22T17:12:25;99112.81;;;27.48;34.33
4024;BME280;2026;51.002;13.668;2022-07-22T17:17:28;99111.38;;;26.92;36.41
4024;BME280;2026;51.002;13.668;2022-07-22T17:22:31;99105.09;;;27.00;35.40
4024;BME280;2026;51.002;13.668;2022-07-22T17:27:36;99090.28;;;27.19;35.68
4024;BME280;2026;51.002;13.668;2022-07-22T17:32:39;99095.25;;;26.49;36.75
4024;BME280;2026;51.002;13.668;2022-07-22T17:37:43;99096.31;;;26.57;36.52
4024;BME280;2026;51.002;13.668;2022-07-22T17:42:47;99092.09;;;26.47;37.07
4024;BME280;2026;51.002;13.668;2022-07-22T17:47:51;99091.81;;;26.28;36.98
4024;BME280;2026;51.002;13.668;2022-07-22T17:52:54;99090.28;;;26.18;37.63
4024;BME280;2026;51.002;13.668;2022-07-22T17:57:59;99093.75;;;26.18;38.08
4024;BME280;2026;51.002;13.668;2022-07-22T18:03:03;99094.69;;;26.22;37.67
4024;BME280;2026;51.002;13.668;2022-07-22T18:08:06;99093.97;;;25.83;38.53
4024;BME280;2026;51.002;13.668;2022-07-22T18:13:11;99095.72;;;26.09;38.69
4024;BME280;2026;51.002;13.668;2022-07-22T18:18:14;99083.19;;;25.83;39.08
4024;BME280;2026;51.002;13.668;2022-07-22T18:23:17;99081.66;;;25.73;39.42
4024;BME280;2026;51.002;13.668;2022-07-22T18:28:22;99077.53;;;25.76;39.96
4024;BME280;2026;51.002;13.668;2022-07-22T18:33:25;99081.31;;;25.53;39.80
4024;BME280;2026;51.002;13.668;2022-07-22T18:38:35;99079.31;;;25.41;40.34
4024;BME280;2026;51.002;13.668;2022-07-22T18:43:42;99092.56;;;25.47;40.36
4024;BME280;2026;51.002;13.668;2022-07-22T18:48:45;99091.03;;;25.37;40.44
4024;BME280;2026;51.002;13.668;2022-07-22T18:53:48;99094.34;;;25.42;40.47
4024;BME280;2026;51.002;13.668;2022-07-22T18:58:52;99085.53;;;25.15;40.45
4024;BME280;2026;51.002;13.668;2022-07-22T19:03:56;99100.56;;;25.17;40.70
4024;BME280;2026;51.002;13.668;2022-07-22T19:09:00;99105.34;;;25.20;40.84
4024;BME280;2026;51.002;13.668;2022-07-22T19:14:05;99106.81;;;24.91;41.69
4024;BME280;2026;51.002;13.668;2022-07-22T19:19:08;99120.47;;;24.77;42.95
4024;BME280;2026;51.002;13.668;2022-07-22T19:24:11;99115.41;;;24.75;42.63
4024;BME280;2026;51.002;13.668;2022-07-22T19:29:17;99124.13;;;24.63;43.35
4024;BME280;2026;51.002;13.668;2022-07-22T19:34:20;99129.94;;;24.39;44.31
4024;BME280;2026;51.002;13.668;2022-07-22T19:39:23;99132.00;;;24.42;43.88
4024;BME280;2026;51.002;13.668;2022-07-22T19:44:27;99123.94;;;24.24;44.60
4024;BME280;2026;51.002;13.668;2022-07-22T19:49:30;99143.63;;;23.93;45.14
4024;BME280;2026;51.002;13.668;2022-07-22T19:54:34;99143.63;;;24.02;45.04
4024;BME280;2026;51.002;13.668;2022-07-22T19:59:39;99138.22;;;23.84;45.50
4024;BME280;2026;51.002;13.668;2022-07-22T20:04:44;99143.69;;;23.70;46.29
4024;BME280;2026;51.002;13.668;2022-07-22T20:09:47;99152.63;;;23.57;46.44
4024;BME280;2026;51.002;13.668;2022-07-22T20:14:51;99160.47;;;23.44;46.83
4024;BME280;2026;51.002;13.668;2022-07-22T20:19:54;99162.69;;;23.42;47.03
4024;BME280;2026;51.002;13.668;2022-07-22T20:24:57;99165.00;;;23.35;47.03
4024;BME280;2026;51.002;13.668;2022-07-22T20:30:22;99170.13;;;23.22;47.48
4024;BME280;2026;51.002;13.668;2022-07-22T20:35:25;99176.59;;;23.21;47.71
4024;BME280;2026;51.002;13.668;2022-07-22T20:40:28;99174.00;;;23.07;47.94
4024;BME280;2026;51.002;13.668;2022-07-22T20:45:33;99178.78;;;22.96;48.36
4024;BME280;2026;51.002;13.668;2022-07-22T20:50:36;99184.44;;;22.95;48.52
4024;BME280;2026;51.002;13.668;2022-07-22T20:55:39;99197.00;;;22.86;48.91
4024;BME280;2026;51.002;13.668;2022-07-22T21:00:43;99211.94;;;22.78;49.20
4024;BME280;2026;51.002;13.668;2022-07-22T21:05:46;99207.69;;;22.63;49.47
4024;BME280;2026;51.002;13.668;2022-07-22T21:10:49;99219.44;;;22.53;49.93
4024;BME280;2026;51.002;13.668;2022-07-22T21:15:54;99227.19;;;22.40;50.29
4024;BME280;2026;51.002;13.668;2022-07-22T21:20:57;99222.84;;;22.31;50.65
4024;BME280;2026;51.002;13.668;2022-07-22T21:26:02;99221.53;;;22.14;50.98
4024;BME280;2026;51.002;13.668;2022-07-22T21:31:07;99207.75;;;22.07;51.44
4024;BME280;2026;51.002;13.668;2022-07-22T21:36:11;99217.47;;;22.03;51.50
4024;BME280;2026;51.002;13.668;2022-07-22T21:41:19;99211.50;;;21.92;51.81
4024;BME280;2026;51.002;13.668;2022-07-22T21:46:24;99213.88;;;21.79;51.96
4024;BME280;2026;51.002;13.668;2022-07-22T21:51:27;99225.19;;;21.76;52.49
4024;BME280;2026;51.002;13.668;2022-07-22T21:56:30;99231.91;;;21.59;52.92
4024;BME280;2026;51.002;13.668;2022-07-22T22:01:52;99234.47;;;21.65;52.50
4024;BME280;2026;51.002;13.668;2022-07-22T22:06:55;99235.16;;;21.37;53.43
4024;BME280;2026;51.002;13.668;2022-07-22T22:11:59;99238.88;;;21.22;54.17
4024;BME280;2026;51.002;13.668;2022-07-22T22:17:03;99253.38;;;21.02;54.64
4024;BME280;2026;51.002;13.668;2022-07-22T22:22:07;99243.38;;;21.08;54.18
4024;BME280;2026;51.002;13.668;2022-07-22T22:27:10;99253.78;;;20.90;54.94
4024;BME280;2026;51.002;13.668;2022-07-22T22:32:14;99230.81;;;20.89;54.62
4024;BME280;2026;51.002;13.668;2022-07-22T22:37:17;99212.22;;;20.78;55.40
4024;BME280;2026;51.002;13.668;2022-07-22T22:42:20;99206.97;;;20.73;55.53
4024;BME280;2026;51.002;13.668;2022-07-22T22:47:24;99208.97;;;20.62;55.46
4024;BME280;2026;51.002;13.668;2022-07-22T22:52:27;99200.78;;;20.54;56.06
4024;BME280;2026;51.002;13.668;2022-07-22T22:57:30;99191.88;;;20.39;56.07
4024;BME280;2026;51.002;13.668;2022-07-22T23:02:35;99191.97;;;20.34;56.10
4024;BME280;2026;51.002;13.668;2022-07-22T23:07:38;99198.16;;;20.29;56.41
4024;BME280;2026;51.002;13.668;2022-07-22T23:12:41;99185.72;;;20.19;56.52
4024;BME280;2026;51.002;13.668;2022-07-22T23:17:46;99183.56;;;20.21;56.98
4024;BME280;2026;51.002;13.668;2022-07-22T23:22:49;99183.97;;;20.09;57.08
4024;BME280;2026;51.002;13.668;2022-07-22T23:27:52;99181.06;;;20.06;57.49
4024;BME280;2026;51.002;13.668;2022-07-22T23:32:56;99169.53;;;19.86;58.00
4024;BME280;2026;51.002;13.668;2022-07-22T23:38:00;99171.56;;;19.70;58.84
4024;BME280;2026;51.002;13.668;2022-07-22T23:43:04;99165.50;;;19.64;58.66
4024;BME280;2026;51.002;13.668;2022-07-22T23:48:08;99159.34;;;19.64;58.84
4024;BME280;2026;51.002;13.668;2022-07-22T23:53:14;99170.28;;;19.62;58.48
4024;BME280;2026;51.002;13.668;2022-07-22T23:58:17;99174.25;;;19.40;59.38
